PWSweather.com
Personal Weather Stations
Station Observations
BALTRELAY
Relay, Baltimore, MD 21227

RelayBaltimore, MD 21227

Lat: 39.24588, Lon: -76.719772

Elevation: 221

Station Type: Davis Vantage Pro2 (6153)

http://www.relayweather.com

Latest ConditionsUpdated 9:30:00 PM GMT Friday, Jul 29, 2016
Currently Today's Max Today's Min Today's Average
Temperature 85.5°F29.7°C 88.8°F31.6°C 70.0°F21.1°C 77.2°F25.1°C
Dew Point 71.5°F21.9°C 73.3°F22.9°C 68.8°F20.4°C 71.3°F21.8°C
Winds Calm Calm 13.8 mph NW22.2 kmh NW - 2.8 mph 4.5 kmh
Wind Gusts -- 18.4 mph29.6 kmh - -
Humidity 63% 96% 56% 84%
Pressure 29.86 in1011.2 mb 29.88 in1011.9 mb 29.77 in1008.1 mb -
Precipitation - 0.56 in14.2 mm - -
Hour Temp Dew Point Humidity Winds Wind Gusts Pressure Precip Precip Rate Daily Precip Total
09:30 PM 85.5°F29.7°C 71.5°F21.9°C 63% Calm Calm -- 29.86 in1011.2 mb - 0.00 in0.0 mm 0.56 in14.2 mm
09:20 PM 85.6°F29.8°C 71.1°F21.7°C 62% 3.5 mph SE5.6 kmh SE 6.9 mph11.1 kmh 29.86 in1011.2 mb - 0.00 in0.0 mm 0.56 in14.2 mm
09:15 PM 85.7°F29.8°C 71.2°F21.8°C 62% 1.2 mph ESE1.9 kmh ESE 1.2 mph1.9 kmh 29.85 in1010.8 mb - 0.00 in0.0 mm 0.56 in14.2 mm
09:10 PM 85.5°F29.7°C 71.4°F21.9°C 63% 3.5 mph E5.6 kmh E 4.6 mph7.4 kmh 29.85 in1010.8 mb - 0.00 in0.0 mm 0.56 in14.2 mm
09:00 PM 85.3°F29.6°C 71.3°F21.8°C 63% 6.9 mph SE11.1 kmh SE 8.1 mph13.0 kmh 29.86 in1011.2 mb - 0.00 in0.0 mm 0.56 in14.2 mm
08:50 PM 86.1°F30.1°C 72.0°F22.2°C 63% 5.8 mph E9.3 kmh E 12.7 mph20.4 kmh 29.86 in1011.2 mb - 0.00 in0.0 mm 0.56 in14.2 mm
08:45 PM 86.5°F30.3°C 71.5°F21.9°C 61% 5.8 mph SE9.3 kmh SE 8.1 mph13.0 kmh 29.85 in1010.8 mb - 0.00 in0.0 mm 0.56 in14.2 mm
08:40 PM 87.4°F30.8°C 71.8°F22.1°C 60% 8.1 mph E13.0 kmh E 10.4 mph16.7 kmh 29.85 in1010.8 mb - 0.00 in0.0 mm 0.56 in14.2 mm
08:30 PM 88.8°F31.6°C 71.1°F21.7°C 56% Calm Calm -- 29.85 in1010.8 mb - 0.00 in0.0 mm 0.56 in14.2 mm
08:20 PM 88.1°F31.2°C 72.0°F22.2°C 59% 1.2 mph N1.9 kmh N 6.9 mph11.1 kmh 29.85 in1010.8 mb - 0.00 in0.0 mm 0.56 in14.2 mm
08:15 PM 87.1°F30.6°C 71.0°F21.7°C 59% 1.2 mph N1.9 kmh N 1.2 mph1.9 kmh 29.85 in1010.8 mb - 0.00 in0.0 mm 0.56 in14.2 mm
08:10 PM 87.3°F30.7°C 71.3°F21.8°C 59% Calm Calm -- 29.85 in1010.8 mb - 0.00 in0.0 mm 0.56 in14.2 mm
08:00 PM 87.8°F31.0°C 72.2°F22.3°C 60% 2.3 mph N3.7 kmh N 3.5 mph5.6 kmh 29.84 in1010.5 mb - 0.00 in0.0 mm 0.56 in14.2 mm
07:50 PM 86.2°F30.1°C 71.6°F22.0°C 62% 1.2 mph W1.9 kmh W 3.5 mph5.6 kmh 29.85 in1010.8 mb - 0.00 in0.0 mm 0.56 in14.2 mm
07:45 PM 86.7°F30.4°C 72.5°F22.5°C 63% 1.2 mph W1.9 kmh W 4.6 mph7.4 kmh 29.85 in1010.8 mb - 0.00 in0.0 mm 0.56 in14.2 mm
07:40 PM 86.6°F30.3°C 71.1°F21.7°C 60% Calm Calm 4.6 mph7.4 kmh 29.85 in1010.8 mb - 0.00 in0.0 mm 0.56 in14.2 mm
07:30 PM 86.6°F30.3°C 71.0°F21.7°C 60% Calm Calm -- 29.85 in1010.8 mb - 0.00 in0.0 mm 0.56 in14.2 mm
07:20 PM 87.1°F30.6°C 71.1°F21.7°C 59% 1.2 mph NW1.9 kmh NW 2.3 mph3.7 kmh 29.85 in1010.8 mb - 0.00 in0.0 mm 0.56 in14.2 mm
07:15 PM 86.4°F30.2°C 72.3°F22.4°C 63% Calm Calm -- 29.85 in1010.8 mb - 0.00 in0.0 mm 0.56 in14.2 mm
07:10 PM 86.6°F30.3°C 71.5°F21.9°C 61% 1.2 mph WNW1.9 kmh WNW 4.6 mph7.4 kmh 29.85 in1010.8 mb - 0.00 in0.0 mm 0.56 in14.2 mm
07:00 PM 86.9°F30.5°C 73.3°F22.9°C 64% 3.5 mph WNW5.6 kmh WNW 4.6 mph7.4 kmh 29.85 in1010.8 mb - 0.00 in0.0 mm 0.56 in14.2 mm
06:50 PM 85.2°F29.6°C 71.7°F22.1°C 64% Calm Calm 1.2 mph1.9 kmh 29.85 in1010.8 mb - 0.00 in0.0 mm 0.56 in14.2 mm
06:45 PM 85.9°F29.9°C 71.8°F22.1°C 63% 4.6 mph W7.4 kmh W 5.8 mph9.3 kmh 29.85 in1010.8 mb - 0.00 in0.0 mm 0.56 in14.2 mm
06:40 PM 86.7°F30.4°C 72.2°F22.3°C 62% 3.5 mph W5.6 kmh W 4.6 mph7.4 kmh 29.85 in1010.8 mb - 0.00 in0.0 mm 0.56 in14.2 mm
06:30 PM 86.7°F30.4°C 72.6°F22.6°C 63% 3.5 mph W5.6 kmh W 6.9 mph11.1 kmh 29.85 in1010.8 mb - 0.00 in0.0 mm 0.56 in14.2 mm
06:20 PM 85.7°F29.8°C 71.7°F22.1°C 63% 3.5 mph W5.6 kmh W 5.8 mph9.3 kmh 29.85 in1010.8 mb - 0.00 in0.0 mm 0.56 in14.2 mm
06:15 PM 86.0°F30.0°C 72.4°F22.4°C 64% 3.5 mph W5.6 kmh W 6.9 mph11.1 kmh 29.85 in1010.8 mb - 0.00 in0.0 mm 0.56 in14.2 mm
06:10 PM 86.0°F30.0°C 71.9°F22.2°C 63% Calm Calm -- 29.85 in1010.8 mb - 0.00 in0.0 mm 0.56 in14.2 mm
06:00 PM 84.5°F29.2°C 72.3°F22.4°C 67% 2.3 mph W3.7 kmh W 5.8 mph9.3 kmh 29.85 in1010.8 mb - 0.00 in0.0 mm 0.56 in14.2 mm
05:50 PM 84.7°F29.3°C 71.2°F21.8°C 64% 2.3 mph S3.7 kmh S 3.5 mph5.6 kmh 29.85 in1010.8 mb - 0.00 in0.0 mm 0.56 in14.2 mm
05:45 PM 85.0°F29.4°C 71.5°F21.9°C 64% Calm Calm 1.2 mph1.9 kmh 29.84 in1010.5 mb - 0.00 in0.0 mm 0.56 in14.2 mm
05:40 PM 85.6°F29.8°C 71.5°F21.9°C 63% 3.5 mph W5.6 kmh W 4.6 mph7.4 kmh 29.84 in1010.5 mb - 0.00 in0.0 mm 0.56 in14.2 mm
05:30 PM 85.5°F29.7°C 71.0°F21.7°C 62% 2.3 mph NNW3.7 kmh NNW 4.6 mph7.4 kmh 29.85 in1010.8 mb - 0.00 in0.0 mm 0.56 in14.2 mm
05:20 PM 84.5°F29.2°C 70.5°F21.4°C 63% 2.3 mph SW3.7 kmh SW 2.3 mph3.7 kmh 29.85 in1010.8 mb - 0.00 in0.0 mm 0.56 in14.2 mm
05:15 PM 85.0°F29.4°C 71.0°F21.7°C 63% 4.6 mph W7.4 kmh W 4.6 mph7.4 kmh 29.85 in1010.8 mb - 0.00 in0.0 mm 0.56 in14.2 mm
05:10 PM 85.9°F29.9°C 71.8°F22.1°C 63% 1.2 mph W1.9 kmh W 2.3 mph3.7 kmh 29.84 in1010.5 mb - 0.00 in0.0 mm 0.56 in14.2 mm
05:00 PM 84.3°F29.1°C 71.2°F21.8°C 65% 1.2 mph W1.9 kmh W 4.6 mph7.4 kmh 29.84 in1010.5 mb - 0.00 in0.0 mm 0.56 in14.2 mm
04:50 PM 85.5°F29.7°C 71.5°F21.9°C 63% 2.3 mph NW3.7 kmh NW 3.5 mph5.6 kmh 29.85 in1010.8 mb - 0.00 in0.0 mm 0.56 in14.2 mm
04:45 PM 86.0°F30.0°C 70.5°F21.4°C 60% 6.9 mph NW11.1 kmh NW 10.4 mph16.7 kmh 29.85 in1010.8 mb - 0.00 in0.0 mm 0.56 in14.2 mm
04:40 PM 85.3°F29.6°C 71.3°F21.8°C 63% 3.5 mph N5.6 kmh N 6.9 mph11.1 kmh 29.84 in1010.5 mb - 0.00 in0.0 mm 0.56 in14.2 mm
04:30 PM 84.9°F29.4°C 68.9°F20.5°C 59% 3.5 mph NNE5.6 kmh NNE 4.6 mph7.4 kmh 29.85 in1010.8 mb - 0.00 in0.0 mm 0.56 in14.2 mm
04:20 PM 84.6°F29.2°C 70.1°F21.2°C 62% 1.2 mph N1.9 kmh N 4.6 mph7.4 kmh 29.85 in1010.8 mb - 0.00 in0.0 mm 0.56 in14.2 mm
04:15 PM 85.5°F29.7°C 71.0°F21.7°C 62% 3.5 mph NNE5.6 kmh NNE 4.6 mph7.4 kmh 29.85 in1010.8 mb - 0.00 in0.0 mm 0.56 in14.2 mm
04:10 PM 84.9°F29.4°C 71.8°F22.1°C 65% 3.5 mph NNW5.6 kmh NNW 4.6 mph7.4 kmh 29.85 in1010.8 mb - 0.00 in0.0 mm 0.56 in14.2 mm
04:00 PM 85.2°F29.6°C 71.7°F22.1°C 64% 4.6 mph NNE7.4 kmh NNE 6.9 mph11.1 kmh 29.85 in1010.8 mb - 0.00 in0.0 mm 0.56 in14.2 mm
03:50 PM 84.0°F28.9°C 71.4°F21.9°C 66% 3.5 mph N5.6 kmh N 4.6 mph7.4 kmh 29.86 in1011.2 mb - 0.00 in0.0 mm 0.56 in14.2 mm
03:45 PM 84.5°F29.2°C 71.0°F21.7°C 64% 3.5 mph N5.6 kmh N 4.6 mph7.4 kmh 29.86 in1011.2 mb - 0.00 in0.0 mm 0.56 in14.2 mm
03:40 PM 84.0°F28.9°C 71.4°F21.9°C 66% 3.5 mph N5.6 kmh N 4.6 mph7.4 kmh 29.86 in1011.2 mb - 0.00 in0.0 mm 0.56 in14.2 mm
03:30 PM 83.1°F28.4°C 71.8°F22.1°C 69% 3.5 mph N5.6 kmh N 5.8 mph9.3 kmh 29.86 in1011.2 mb - 0.00 in0.0 mm 0.56 in14.2 mm
03:20 PM 82.6°F28.1°C 71.4°F21.9°C 69% 1.2 mph NNE1.9 kmh NNE 3.5 mph5.6 kmh 29.86 in1011.2 mb - 0.00 in0.0 mm 0.56 in14.2 mm
03:15 PM 82.1°F27.8°C 70.9°F21.6°C 69% 1.2 mph NE1.9 kmh NE 3.5 mph5.6 kmh 29.86 in1011.2 mb - 0.00 in0.0 mm 0.56 in14.2 mm
03:10 PM 82.0°F27.8°C 71.3°F21.8°C 70% 3.5 mph NNE5.6 kmh NNE 6.9 mph11.1 kmh 29.86 in1011.2 mb - 0.00 in0.0 mm 0.56 in14.2 mm
03:00 PM 81.2°F27.3°C 70.9°F21.6°C 71% 6.9 mph N11.1 kmh N 9.2 mph14.8 kmh 29.86 in1011.2 mb - 0.00 in0.0 mm 0.56 in14.2 mm
02:50 PM 80.6°F27.0°C 70.7°F21.5°C 72% 5.8 mph NW9.3 kmh NW 9.2 mph14.8 kmh 29.86 in1011.2 mb - 0.00 in0.0 mm 0.56 in14.2 mm
02:45 PM 81.5°F27.5°C 71.6°F22.0°C 72% 6.9 mph N11.1 kmh N 10.4 mph16.7 kmh 29.86 in1011.2 mb - 0.00 in0.0 mm 0.56 in14.2 mm
02:40 PM 80.6°F27.0°C 71.1°F21.7°C 73% 3.5 mph NW5.6 kmh NW 8.1 mph13.0 kmh 29.86 in1011.2 mb - 0.00 in0.0 mm 0.56 in14.2 mm
02:30 PM 79.9°F26.6°C 71.2°F21.8°C 75% 5.8 mph N9.3 kmh N 8.1 mph13.0 kmh 29.86 in1011.2 mb - 0.00 in0.0 mm 0.56 in14.2 mm
02:20 PM 78.8°F26.0°C 70.6°F21.4°C 76% 4.6 mph NNW7.4 kmh NNW 4.6 mph7.4 kmh 29.86 in1011.2 mb - 0.00 in0.0 mm 0.56 in14.2 mm
02:15 PM 79.0°F26.1°C 71.2°F21.8°C 77% 3.5 mph N5.6 kmh N 4.6 mph7.4 kmh 29.86 in1011.2 mb - 0.00 in0.0 mm 0.56 in14.2 mm
02:10 PM 79.3°F26.3°C 71.1°F21.7°C 76% 4.6 mph NNE7.4 kmh NNE 9.2 mph14.8 kmh 29.86 in1011.2 mb - 0.00 in0.0 mm 0.56 in14.2 mm
02:00 PM 78.8°F26.0°C 72.4°F22.4°C 81% 3.5 mph NNE5.6 kmh NNE 4.6 mph7.4 kmh 29.86 in1011.2 mb - 0.00 in0.0 mm 0.56 in14.2 mm
01:50 PM 78.4°F25.8°C 71.3°F21.8°C 79% 2.3 mph N3.7 kmh N 3.5 mph5.6 kmh 29.86 in1011.2 mb - 0.00 in0.0 mm 0.56 in14.2 mm
01:45 PM 78.4°F25.8°C 71.7°F22.1°C 80% 3.5 mph N5.6 kmh N 4.6 mph7.4 kmh 29.86 in1011.2 mb - 0.00 in0.0 mm 0.56 in14.2 mm
01:40 PM 77.9°F25.5°C 71.6°F22.0°C 81% 2.3 mph N3.7 kmh N 3.5 mph5.6 kmh 29.86 in1011.2 mb - 0.00 in0.0 mm 0.56 in14.2 mm
01:30 PM 77.8°F25.4°C 71.8°F22.1°C 82% 1.2 mph N1.9 kmh N 3.5 mph5.6 kmh 29.86 in1011.2 mb - 0.00 in0.0 mm 0.56 in14.2 mm
01:20 PM 77.2°F25.1°C 71.6°F22.0°C 83% 3.5 mph N5.6 kmh N 3.5 mph5.6 kmh 29.86 in1011.2 mb - 0.00 in0.0 mm 0.56 in14.2 mm
01:15 PM 76.8°F24.9°C 71.6°F22.0°C 84% 2.3 mph NNW3.7 kmh NNW 4.6 mph7.4 kmh 29.86 in1011.2 mb - 0.00 in0.0 mm 0.56 in14.2 mm
01:10 PM 76.3°F24.6°C 71.4°F21.9°C 85% 6.9 mph N11.1 kmh N 12.7 mph20.4 kmh 29.86 in1011.2 mb - 0.00 in0.0 mm 0.56 in14.2 mm
01:00 PM 75.8°F24.3°C 72.0°F22.2°C 88% 1.2 mph N1.9 kmh N 3.5 mph5.6 kmh 29.86 in1011.2 mb - 0.00 in0.0 mm 0.56 in14.2 mm
12:50 PM 75.0°F23.9°C 71.8°F22.1°C 90% 2.3 mph N3.7 kmh N 4.6 mph7.4 kmh 29.86 in1011.2 mb - 0.00 in0.0 mm 0.56 in14.2 mm
12:45 PM 74.3°F23.5°C 71.5°F21.9°C 91% 3.5 mph N5.6 kmh N 4.6 mph7.4 kmh 29.86 in1011.2 mb - 0.00 in0.0 mm 0.56 in14.2 mm
12:40 PM 73.9°F23.3°C 71.7°F22.1°C 93% 1.2 mph NNW1.9 kmh NNW 4.6 mph7.4 kmh 29.86 in1011.2 mb - 0.00 in0.0 mm 0.56 in14.2 mm
12:30 PM 72.7°F22.6°C 70.9°F21.6°C 94% 4.6 mph N7.4 kmh N 8.1 mph13.0 kmh 29.85 in1010.8 mb - 0.00 in0.0 mm 0.56 in14.2 mm
12:20 PM 71.5°F21.9°C 69.7°F20.9°C 94% 4.6 mph NNE7.4 kmh NNE 8.1 mph13.0 kmh 29.85 in1010.8 mb - 0.00 in0.0 mm 0.56 in14.2 mm
12:15 PM 71.4°F21.9°C 69.6°F20.9°C 94% 3.5 mph N5.6 kmh N 4.6 mph7.4 kmh 29.85 in1010.8 mb - 0.00 in0.0 mm 0.56 in14.2 mm
12:10 PM 71.4°F21.9°C 69.6°F20.9°C 94% 2.3 mph N3.7 kmh N 4.6 mph7.4 kmh 29.85 in1010.8 mb - 0.00 in0.0 mm 0.56 in14.2 mm
12:00 PM 71.0°F21.7°C 69.5°F20.8°C 95% 5.8 mph N9.3 kmh N 8.1 mph13.0 kmh 29.85 in1010.8 mb - 0.00 in0.0 mm 0.56 in14.2 mm
11:50 AM 70.9°F21.6°C 69.4°F20.8°C 95% 4.6 mph N7.4 kmh N 12.7 mph20.4 kmh 29.85 in1010.8 mb - 0.00 in0.0 mm 0.56 in14.2 mm
11:45 AM 70.7°F21.5°C 69.2°F20.7°C 95% 4.6 mph N7.4 kmh N 10.4 mph16.7 kmh 29.85 in1010.8 mb - 0.00 in0.0 mm 0.56 in14.2 mm
11:40 AM 70.6°F21.4°C 69.1°F20.6°C 95% 5.8 mph N9.3 kmh N 9.2 mph14.8 kmh 29.85 in1010.8 mb - 0.00 in0.0 mm 0.56 in14.2 mm
11:30 AM 70.3°F21.3°C 69.1°F20.6°C 96% 4.6 mph N7.4 kmh N 9.2 mph14.8 kmh 29.84 in1010.5 mb - 0.00 in0.0 mm 0.56 in14.2 mm
11:20 AM 70.2°F21.2°C 69.0°F20.6°C 96% 5.8 mph N9.3 kmh N 8.1 mph13.0 kmh 29.84 in1010.5 mb - 0.00 in0.0 mm 0.56 in14.2 mm
11:15 AM 70.3°F21.3°C 69.1°F20.6°C 96% 4.6 mph N7.4 kmh N 8.1 mph13.0 kmh 29.84 in1010.5 mb - 0.00 in0.0 mm 0.56 in14.2 mm
11:10 AM 70.3°F21.3°C 69.1°F20.6°C 96% 4.6 mph NNW7.4 kmh NNW 5.8 mph9.3 kmh 29.84 in1010.5 mb - 0.01 in0.3 mm 0.56 in14.2 mm
11:00 AM 70.0°F21.1°C 68.8°F20.4°C 96% 1.2 mph NNW1.9 kmh NNW 2.3 mph3.7 kmh 29.84 in1010.5 mb - 0.00 in0.0 mm 0.55 in14.0 mm
10:50 AM 70.2°F21.2°C 69.0°F20.6°C 96% 2.3 mph NNW3.7 kmh NNW 4.6 mph7.4 kmh 29.84 in1010.5 mb - 0.00 in0.0 mm 0.55 in14.0 mm
10:45 AM 70.1°F21.2°C 68.9°F20.5°C 96% 3.5 mph N5.6 kmh N 4.6 mph7.4 kmh 29.83 in1010.2 mb - 0.00 in0.0 mm 0.55 in14.0 mm
10:40 AM 70.2°F21.2°C 69.0°F20.6°C 96% 1.2 mph N1.9 kmh N 3.5 mph5.6 kmh 29.83 in1010.2 mb - 0.00 in0.0 mm 0.55 in14.0 mm
10:30 AM 70.1°F21.2°C 68.9°F20.5°C 96% 2.3 mph N3.7 kmh N 5.8 mph9.3 kmh 29.83 in1010.2 mb - 0.00 in0.0 mm 0.55 in14.0 mm
10:20 AM 70.3°F21.3°C 69.1°F20.6°C 96% 5.8 mph N9.3 kmh N 6.9 mph11.1 kmh 29.82 in1009.8 mb - 0.00 in0.0 mm 0.55 in14.0 mm
10:15 AM 70.2°F21.2°C 69.0°F20.6°C 96% 4.6 mph N7.4 kmh N 6.9 mph11.1 kmh 29.82 in1009.8 mb - 0.00 in0.0 mm 0.55 in14.0 mm
10:10 AM 70.1°F21.2°C 68.9°F20.5°C 96% 2.3 mph N3.7 kmh N 4.6 mph7.4 kmh 29.82 in1009.8 mb - 0.00 in0.0 mm 0.55 in14.0 mm
10:00 AM 70.2°F21.2°C 69.0°F20.6°C 96% 4.6 mph N7.4 kmh N 5.8 mph9.3 kmh 29.81 in1009.5 mb - 0.00 in0.0 mm 0.55 in14.0 mm
09:50 AM 70.3°F21.3°C 69.1°F20.6°C 96% 3.5 mph N5.6 kmh N 4.6 mph7.4 kmh 29.81 in1009.5 mb - 0.00 in0.0 mm 0.55 in14.0 mm
09:45 AM 70.3°F21.3°C 69.1°F20.6°C 96% 3.5 mph N5.6 kmh N 8.1 mph13.0 kmh 29.81 in1009.5 mb - 0.00 in0.0 mm 0.55 in14.0 mm
09:40 AM 70.3°F21.3°C 69.1°F20.6°C 96% 4.6 mph N7.4 kmh N 8.1 mph13.0 kmh 29.80 in1009.1 mb - 0.00 in0.0 mm 0.55 in14.0 mm
09:30 AM 70.4°F21.3°C 69.2°F20.7°C 96% 3.5 mph NNW5.6 kmh NNW 4.6 mph7.4 kmh 29.80 in1009.1 mb - 0.00 in0.0 mm 0.55 in14.0 mm
09:20 AM 70.5°F21.4°C 69.3°F20.7°C 96% 1.2 mph NNW1.9 kmh NNW 4.6 mph7.4 kmh 29.79 in1008.8 mb - 0.00 in0.0 mm 0.55 in14.0 mm
09:15 AM 70.4°F21.3°C 69.2°F20.7°C 96% 2.3 mph N3.7 kmh N 3.5 mph5.6 kmh 29.80 in1009.1 mb - 0.00 in0.0 mm 0.55 in14.0 mm
09:10 AM 70.5°F21.4°C 69.3°F20.7°C 96% Calm Calm -- 29.79 in1008.8 mb - 0.01 in0.3 mm 0.55 in14.0 mm
09:00 AM 70.6°F21.4°C 69.4°F20.8°C 96% 2.3 mph N3.7 kmh N 4.6 mph7.4 kmh 29.79 in1008.8 mb - 0.02 in0.5 mm 0.55 in14.0 mm
08:50 AM 70.4°F21.3°C 69.2°F20.7°C 96% 3.5 mph N5.6 kmh N 5.8 mph9.3 kmh 29.79 in1008.8 mb - 0.01 in0.3 mm 0.53 in13.5 mm
08:45 AM 70.4°F21.3°C 69.2°F20.7°C 96% 2.3 mph N3.7 kmh N 3.5 mph5.6 kmh 29.79 in1008.8 mb - 0.02 in0.5 mm 0.52 in13.2 mm
08:40 AM 70.5°F21.4°C 69.3°F20.7°C 96% 1.2 mph NNE1.9 kmh NNE 3.5 mph5.6 kmh 29.79 in1008.8 mb - 0.22 in5.6 mm 0.50 in12.7 mm
08:30 AM 70.7°F21.5°C 69.5°F20.8°C 96% 3.5 mph W5.6 kmh W 4.6 mph7.4 kmh 29.80 in1009.1 mb - 0.17 in4.3 mm 0.30 in7.6 mm
08:20 AM 71.8°F22.1°C 70.6°F21.4°C 96% 13.8 mph NW22.2 kmh NW 18.4 mph29.6 kmh 29.80 in1009.1 mb - 0.07 in1.8 mm 0.15 in3.8 mm
08:15 AM 72.3°F22.4°C 71.1°F21.7°C 96% 4.6 mph W7.4 kmh W 8.1 mph13.0 kmh 29.79 in1008.8 mb - 0.00 in0.0 mm 0.08 in2.0 mm
08:10 AM 72.3°F22.4°C 71.1°F21.7°C 96% 2.3 mph WNW3.7 kmh WNW 3.5 mph5.6 kmh 29.78 in1008.5 mb - 0.01 in0.3 mm 0.08 in2.0 mm
08:00 AM 72.3°F22.4°C 71.1°F21.7°C 96% 6.9 mph N11.1 kmh N 10.4 mph16.7 kmh 29.77 in1008.1 mb - 0.00 in0.0 mm 0.07 in1.8 mm
07:50 AM 72.4°F22.4°C 71.2°F21.8°C 96% 5.8 mph N9.3 kmh N 9.2 mph14.8 kmh 29.77 in1008.1 mb - 0.00 in0.0 mm 0.07 in1.8 mm
07:45 AM 72.4°F22.4°C 71.2°F21.8°C 96% 6.9 mph N11.1 kmh N 10.4 mph16.7 kmh 29.77 in1008.1 mb - 0.00 in0.0 mm 0.07 in1.8 mm
07:40 AM 72.4°F22.4°C 71.2°F21.8°C 96% 5.8 mph N9.3 kmh N 6.9 mph11.1 kmh 29.78 in1008.5 mb - 0.00 in0.0 mm 0.07 in1.8 mm
07:30 AM 72.7°F22.6°C 71.5°F21.9°C 96% 3.5 mph NNW5.6 kmh NNW 6.9 mph11.1 kmh 29.78 in1008.5 mb - 0.01 in0.3 mm 0.07 in1.8 mm
07:20 AM 72.9°F22.7°C 71.7°F22.1°C 96% 2.3 mph N3.7 kmh N 3.5 mph5.6 kmh 29.78 in1008.5 mb - 0.00 in0.0 mm 0.06 in1.5 mm
07:15 AM 72.9°F22.7°C 71.7°F22.1°C 96% 3.5 mph N5.6 kmh N 4.6 mph7.4 kmh 29.78 in1008.5 mb - 0.00 in0.0 mm 0.06 in1.5 mm
07:10 AM 72.9°F22.7°C 71.7°F22.1°C 96% 2.3 mph N3.7 kmh N 4.6 mph7.4 kmh 29.79 in1008.8 mb - 0.01 in0.3 mm 0.06 in1.5 mm
07:00 AM 73.1°F22.8°C 71.9°F22.2°C 96% Calm Calm -- 29.79 in1008.8 mb - 0.00 in0.0 mm 0.05 in1.3 mm
06:50 AM 73.1°F22.8°C 71.9°F22.2°C 96% 2.3 mph NNE3.7 kmh NNE 3.5 mph5.6 kmh 29.79 in1008.8 mb - 0.01 in0.3 mm 0.05 in1.3 mm
06:45 AM 73.3°F22.9°C 72.1°F22.3°C 96% 1.2 mph NNW1.9 kmh NNW 2.3 mph3.7 kmh 29.79 in1008.8 mb - 0.01 in0.3 mm 0.05 in1.3 mm
06:40 AM 73.3°F22.9°C 72.1°F22.3°C 96% Calm Calm -- 29.80 in1009.1 mb - 0.00 in0.0 mm 0.04 in1.0 mm
06:30 AM 73.3°F22.9°C 72.1°F22.3°C 96% Calm Calm 3.5 mph5.6 kmh 29.81 in1009.5 mb - 0.01 in0.3 mm 0.04 in1.0 mm
06:20 AM 73.3°F22.9°C 72.1°F22.3°C 96% Calm Calm 4.6 mph7.4 kmh 29.81 in1009.5 mb - 0.00 in0.0 mm 0.03 in0.8 mm
06:15 AM 73.4°F23.0°C 72.2°F22.3°C 96% 3.5 mph N5.6 kmh N 4.6 mph7.4 kmh 29.82 in1009.8 mb - 0.00 in0.0 mm 0.03 in0.8 mm
06:10 AM 73.3°F22.9°C 72.1°F22.3°C 96% 2.3 mph N3.7 kmh N 4.6 mph7.4 kmh 29.82 in1009.8 mb - 0.00 in0.0 mm 0.03 in0.8 mm
06:00 AM 73.2°F22.9°C 72.0°F22.2°C 96% Calm Calm -- 29.82 in1009.8 mb - 0.00 in0.0 mm 0.03 in0.8 mm
05:50 AM 73.4°F23.0°C 72.2°F22.3°C 96% Calm Calm -- 29.83 in1010.2 mb - 0.00 in0.0 mm 0.03 in0.8 mm
05:45 AM 73.3°F22.9°C 72.1°F22.3°C 96% Calm Calm -- 29.82 in1009.8 mb - 0.01 in0.3 mm 0.03 in0.8 mm
05:40 AM 73.3°F22.9°C 72.1°F22.3°C 96% 2.3 mph NNE3.7 kmh NNE 2.3 mph3.7 kmh 29.82 in1009.8 mb - 0.00 in0.0 mm 0.02 in0.5 mm
05:30 AM 73.5°F23.1°C 72.3°F22.4°C 96% Calm Calm -- 29.82 in1009.8 mb - 0.00 in0.0 mm 0.02 in0.5 mm
05:20 AM 73.7°F23.2°C 72.5°F22.5°C 96% 3.5 mph N5.6 kmh N 4.6 mph7.4 kmh 29.82 in1009.8 mb - 0.00 in0.0 mm 0.02 in0.5 mm
05:15 AM 73.6°F23.1°C 72.4°F22.4°C 96% 1.2 mph NNW1.9 kmh NNW -- 29.82 in1009.8 mb - 0.00 in0.0 mm 0.02 in0.5 mm
05:10 AM 73.6°F23.1°C 72.3°F22.4°C 96% 2.3 mph N3.7 kmh N 4.6 mph7.4 kmh 29.82 in1009.8 mb - 0.00 in0.0 mm 0.02 in0.5 mm
05:00 AM 73.5°F23.1°C 72.3°F22.4°C 96% Calm Calm -- 29.83 in1010.2 mb - 0.00 in0.0 mm 0.02 in0.5 mm
04:50 AM 73.7°F23.2°C 72.5°F22.5°C 96% Calm Calm -- 29.83 in1010.2 mb - 0.00 in0.0 mm 0.02 in0.5 mm
04:45 AM 73.7°F23.2°C 72.5°F22.5°C 96% Calm Calm 3.5 mph5.6 kmh 29.83 in1010.2 mb - 0.00 in0.0 mm 0.02 in0.5 mm
04:40 AM 73.8°F23.2°C 72.6°F22.6°C 96% Calm Calm -- 29.83 in1010.2 mb - 0.00 in0.0 mm 0.02 in0.5 mm
04:30 AM 73.8°F23.2°C 72.6°F22.6°C 96% Calm Calm -- 29.84 in1010.5 mb - 0.01 in0.3 mm 0.02 in0.5 mm
04:20 AM 73.8°F23.2°C 72.6°F22.6°C 96% Calm Calm -- 29.84 in1010.5 mb - 0.00 in0.0 mm 0.01 in0.3 mm
04:15 AM 73.7°F23.2°C 72.5°F22.5°C 96% Calm Calm -- 29.84 in1010.5 mb - 0.00 in0.0 mm 0.01 in0.3 mm
04:10 AM 73.6°F23.1°C 72.4°F22.4°C 96% Calm Calm -- 29.84 in1010.5 mb - 0.01 in0.3 mm 0.01 in0.3 mm
04:00 AM 73.9°F23.3°C 72.7°F22.6°C 96% Calm Calm -- 29.84 in1010.5 mb - 0.03 in0.8 mm 0.37 in9.4 mm
03:50 AM 73.8°F23.2°C 72.6°F22.6°C 96% Calm Calm -- 29.84 in1010.5 mb - 0.02 in0.5 mm 0.57 in14.5 mm
03:45 AM 73.8°F23.2°C 72.6°F22.6°C 96% 2.3 mph SSE3.7 kmh SSE 4.6 mph7.4 kmh 29.83 in1010.2 mb - 0.01 in0.3 mm 0.55 in14.0 mm
03:40 AM 73.8°F23.2°C 72.6°F22.6°C 96% Calm Calm -- 29.83 in1010.2 mb - 0.01 in0.3 mm 0.54 in13.7 mm
03:30 AM 73.9°F23.3°C 72.4°F22.4°C 95% Calm Calm -- 29.83 in1010.2 mb - 0.01 in0.3 mm 0.53 in13.5 mm
03:20 AM 74.0°F23.3°C 72.5°F22.5°C 95% 3.5 mph SE5.6 kmh SE 4.6 mph7.4 kmh 29.83 in1010.2 mb - 0.01 in0.3 mm 0.52 in13.2 mm
03:15 AM 73.9°F23.3°C 72.4°F22.4°C 95% 4.6 mph SE7.4 kmh SE 4.6 mph7.4 kmh 29.82 in1009.8 mb - 0.00 in0.0 mm 0.51 in13.0 mm
03:10 AM 74.0°F23.3°C 72.5°F22.5°C 95% 5.8 mph SE9.3 kmh SE 8.1 mph13.0 kmh 29.82 in1009.8 mb - 0.02 in0.5 mm 0.51 in13.0 mm
03:00 AM 74.0°F23.3°C 72.5°F22.5°C 95% 2.3 mph E3.7 kmh E 4.6 mph7.4 kmh 29.83 in1010.2 mb - 0.02 in0.5 mm 0.49 in12.4 mm
02:50 AM 74.0°F23.3°C 72.5°F22.5°C 95% Calm Calm -- 29.83 in1010.2 mb - 0.01 in0.3 mm 0.47 in11.9 mm
02:45 AM 74.1°F23.4°C 72.6°F22.6°C 95% Calm Calm -- 29.83 in1010.2 mb - 0.00 in0.0 mm 0.46 in11.7 mm
02:40 AM 74.2°F23.4°C 72.6°F22.6°C 95% Calm Calm -- 29.83 in1010.2 mb - 0.00 in0.0 mm 0.46 in11.7 mm
02:30 AM 74.2°F23.4°C 72.3°F22.4°C 94% 2.3 mph N3.7 kmh N 3.5 mph5.6 kmh 29.84 in1010.5 mb - 0.00 in0.0 mm 0.46 in11.7 mm
02:20 AM 74.3°F23.5°C 72.8°F22.7°C 95% Calm Calm 3.5 mph5.6 kmh 29.84 in1010.5 mb - 0.00 in0.0 mm 0.46 in11.7 mm
02:15 AM 74.3°F23.5°C 72.5°F22.5°C 94% 4.6 mph NNW7.4 kmh NNW 5.8 mph9.3 kmh 29.84 in1010.5 mb - 0.00 in0.0 mm 0.46 in11.7 mm
02:10 AM 74.3°F23.5°C 72.5°F22.5°C 94% 2.3 mph N3.7 kmh N 4.6 mph7.4 kmh 29.84 in1010.5 mb - 0.00 in0.0 mm 0.46 in11.7 mm
02:00 AM 74.6°F23.7°C 72.7°F22.6°C 94% 4.6 mph N7.4 kmh N 8.1 mph13.0 kmh 29.84 in1010.5 mb - 0.04 in1.0 mm 0.46 in11.7 mm
01:50 AM 74.5°F23.6°C 72.6°F22.6°C 94% 5.8 mph ENE9.3 kmh ENE 6.9 mph11.1 kmh 29.85 in1010.8 mb - 0.09 in2.3 mm 0.44 in11.2 mm
01:45 AM 74.7°F23.7°C 72.8°F22.7°C 94% 3.5 mph NNW5.6 kmh NNW 4.6 mph7.4 kmh 29.88 in1011.9 mb - 0.02 in0.5 mm 0.36 in9.1 mm
01:40 AM 74.9°F23.8°C 73.0°F22.8°C 94% 4.6 mph WNW7.4 kmh WNW 5.8 mph9.3 kmh 29.88 in1011.9 mb - 0.00 in0.0 mm 0.34 in8.6 mm
01:30 AM 74.8°F23.8°C 72.9°F22.7°C 94% Calm Calm -- 29.86 in1011.2 mb - 0.02 in0.5 mm 0.34 in8.6 mm
01:20 AM 74.8°F23.8°C 72.6°F22.6°C 93% Calm Calm 2.3 mph3.7 kmh 29.86 in1011.2 mb - 0.01 in0.3 mm 0.32 in8.1 mm
01:15 AM 74.8°F23.8°C 72.6°F22.6°C 93% Calm Calm 1.2 mph1.9 kmh 29.85 in1010.8 mb - 0.02 in0.5 mm 0.31 in7.9 mm
01:10 AM 74.9°F23.8°C 72.7°F22.6°C 93% Calm Calm -- 29.86 in1011.2 mb - 0.03 in0.8 mm 0.29 in7.4 mm
01:00 AM 74.9°F23.8°C 72.7°F22.6°C 93% 2.3 mph N3.7 kmh N 3.5 mph5.6 kmh 29.85 in1010.8 mb - 0.00 in0.0 mm 0.26 in6.6 mm
12:50 AM 74.5°F23.6°C 72.3°F22.4°C 93% 4.6 mph ENE7.4 kmh ENE 6.9 mph11.1 kmh 29.85 in1010.8 mb - 0.00 in0.0 mm 0.26 in6.6 mm
12:45 AM 74.5°F23.6°C 72.3°F22.4°C 93% 2.3 mph ENE3.7 kmh ENE 5.8 mph9.3 kmh 29.85 in1010.8 mb - 0.00 in0.0 mm 0.26 in6.6 mm
12:40 AM 74.5°F23.6°C 72.3°F22.4°C 93% 2.3 mph NE3.7 kmh NE 4.6 mph7.4 kmh 29.85 in1010.8 mb - 0.00 in0.0 mm 0.26 in6.6 mm
12:30 AM 74.7°F23.7°C 72.5°F22.5°C 93% 4.6 mph SE7.4 kmh SE 6.9 mph11.1 kmh 29.86 in1011.2 mb - 0.00 in0.0 mm 0.26 in6.6 mm
12:20 AM 74.5°F23.6°C 72.3°F22.4°C 93% 5.8 mph E9.3 kmh E 6.9 mph11.1 kmh 29.85 in1010.8 mb - 0.00 in0.0 mm 0.26 in6.6 mm
12:15 AM 74.4°F23.6°C 72.3°F22.4°C 93% 2.3 mph ENE3.7 kmh ENE 4.6 mph7.4 kmh 29.85 in1010.8 mb - 0.00 in0.0 mm 0.26 in6.6 mm
12:10 AM 74.4°F23.6°C 72.2°F22.3°C 93% 4.6 mph ENE7.4 kmh ENE 5.8 mph9.3 kmh 29.85 in1010.8 mb - 0.00 in0.0 mm 0.26 in6.6 mm
12:00 AM 74.4°F23.6°C 72.2°F22.3°C 93% 3.5 mph NE5.6 kmh NE 4.6 mph7.4 kmh 29.85 in1010.8 mb - 0.00 in0.0 mm 0.26 in6.6 mm